Time;durP1;ratioP1;P1;durP2;ratioP2;P2;SDS_P1;SDS_P2;PMS_P1;PMS_P2;Temp;Humidity;BMP_temperature;BMP_pressure;BME280_temperature;BME280_humidity;BME280_pressure;Samples;Min_cycle;Max_cycle;Signal;HPM_P1;HPM_P2
2023/03/24 00:00:22;;;;;;;11.05;5.05;;;11.40;99.90;;;;;;4878150;29;20147;-82
2023/03/24 00:02:50;;;;;;;12.35;4.93;;;11.40;99.90;;;;;;4900201;29;20048;-83
2023/03/24 00:05:18;;;;;;;13.25;4.50;;;11.40;99.90;;;;;;4876412;29;20044;-82
2023/03/24 00:07:44;;;;;;;10.20;4.28;;;11.40;99.90;;;;;;4896969;29;20053;-83
2023/03/24 00:10:13;;;;;;;10.82;5.03;;;11.50;99.90;;;;;;4900576;29;20040;-83
2023/03/24 00:12:41;;;;;;;9.15;4.32;;;11.40;99.90;;;;;;4883891;29;20075;-82
2023/03/24 00:15:11;;;;;;;10.57;4.93;;;11.40;99.90;;;;;;4887291;29;20051;-83
2023/03/24 00:17:38;;;;;;;13.55;4.80;;;11.40;99.90;;;;;;4897966;29;20044;-82
2023/03/24 00:20:06;;;;;;;9.82;4.75;;;11.40;99.90;;;;;;4883213;29;20116;-83
2023/03/24 00:22:33;;;;;;;10.02;4.95;;;11.40;99.90;;;;;;4901560;29;20049;-82
2023/03/24 00:25:03;;;;;;;11.20;4.82;;;11.40;99.90;;;;;;4880697;29;20045;-83
2023/03/24 00:27:29;;;;;;;8.38;4.55;;;11.40;99.90;;;;;;4901726;29;20051;-82
2023/03/24 00:29:58;;;;;;;9.65;4.75;;;11.40;99.90;;;;;;4907244;29;20646;-80
2023/03/24 00:32:24;;;;;;;12.95;5.18;;;11.40;99.90;;;;;;4894172;29;20161;-83
2023/03/24 00:34:51;;;;;;;9.23;4.80;;;11.30;99.90;;;;;;4907259;29;20056;-83
2023/03/24 00:37:17;;;;;;;10.43;4.57;;;11.40;99.90;;;;;;4901763;29;20116;-83
2023/03/24 00:39:42;;;;;;;13.38;5.05;;;11.70;99.90;;;;;;4892318;29;20159;-83
2023/03/24 00:42:08;;;;;;;13.55;5.00;;;11.40;99.90;;;;;;4887953;29;20459;-82
2023/03/24 00:44:35;;;;;;;11.93;4.97;;;11.30;99.90;;;;;;4902135;29;20574;-83
2023/03/24 00:47:06;;;;;;;9.25;4.70;;;11.30;99.90;;;;;;4890663;29;20048;-83
2023/03/24 00:49:43;;;;;;;11.93;4.88;;;11.30;99.90;;;;;;4909431;29;20083;-83
2023/03/24 00:52:12;;;;;;;10.38;5.35;;;11.90;99.90;;;;;;4912005;29;20044;-83
2023/03/24 00:54:39;;;;;;;12.27;5.45;;;11.50;99.90;;;;;;4896464;29;20724;-83
2023/03/24 00:57:06;;;;;;;8.80;4.75;;;11.30;99.90;;;;;;4890335;29;20066;-83
2023/03/24 00:59:41;;;;;;;9.98;4.05;;;11.30;99.90;;;;;;4894616;29;20571;-83
2023/03/24 01:02:11;;;;;;;11.20;4.80;;;11.30;99.90;;;;;;4909118;29;20040;-83
2023/03/24 01:04:40;;;;;;;10.18;4.75;;;11.30;99.90;;;;;;4896632;29;20414;-82
2023/03/24 01:07:10;;;;;;;9.88;4.43;;;11.30;99.90;;;;;;4912227;29;20119;-82
2023/03/24 01:09:36;;;;;;;8.90;4.38;;;11.40;99.90;;;;;;4913852;29;20076;-83
2023/03/24 01:12:03;;;;;;;8.90;4.05;;;11.50;99.90;;;;;;4914559;29;20208;-83
2023/03/24 01:14:31;;;;;;;8.95;4.28;;;11.20;99.90;;;;;;4897666;29;20479;-83
2023/03/24 01:16:57;;;;;;;7.97;3.90;;;11.30;99.90;;;;;;4895801;29;20119;-83
2023/03/24 01:19:24;;;;;;;8.10;4.20;;;11.30;99.90;;;;;;4914252;29;20028;-83
2023/03/24 01:21:53;;;;;;;8.50;4.70;;;11.30;99.90;;;;;;4911599;29;20044;-83
2023/03/24 01:24:24;;;;;;;7.93;4.07;;;11.20;99.90;;;;;;4892942;29;20047;-83
2023/03/24 01:26:50;;;;;;;10.05;3.90;;;11.30;99.90;;;;;;4911254;29;20054;-83
2023/03/24 01:29:16;;;;;;;11.25;4.40;;;11.30;99.90;;;;;;4913496;29;20048;-83
2023/03/24 01:31:41;;;;;;;11.20;4.75;;;11.30;99.90;;;;;;4913818;29;20094;-83
2023/03/24 01:34:07;;;;;;;9.98;4.05;;;11.20;99.90;;;;;;4913549;29;20040;-83
2023/03/24 01:36:33;;;;;;;8.32;4.25;;;11.20;99.90;;;;;;4897974;29;20044;-83
2023/03/24 01:39:00;;;;;;;7.32;3.70;;;11.20;99.90;;;;;;4913445;29;20119;-84
2023/03/24 01:41:35;;;;;;;7.43;3.95;;;11.30;99.90;;;;;;4914392;29;20044;-83
2023/03/24 01:44:21;;;;;;;9.65;3.58;;;11.30;99.90;;;;;;4893354;29;20052;-83
2023/03/24 01:46:47;;;;;;;8.80;3.80;;;11.30;99.90;;;;;;4912942;29;20063;-83
2023/03/24 01:49:12;;;;;;;9.60;4.00;;;11.30;99.90;;;;;;4913776;29;20055;-83
2023/03/24 01:51:45;;;;;;;9.45;4.00;;;11.30;99.90;;;;;;4913295;29;20046;-84
2023/03/24 01:54:21;;;;;;;7.78;4.03;;;11.30;99.90;;;;;;4913570;29;20040;-83
2023/03/24 01:56:58;;;;;;;8.82;3.80;;;11.30;99.90;;;;;;4913840;29;20076;-83
2023/03/24 01:59:28;;;;;;;10.20;4.18;;;11.70;99.90;;;;;;4912754;29;20070;-83
2023/03/24 02:02:01;;;;;;;7.93;3.83;;;11.30;99.90;;;;;;4910257;29;20036;-83
2023/03/24 02:04:37;;;;;;;8.85;4.43;;;11.30;99.90;;;;;;4913814;29;20040;-83
2023/03/24 02:07:24;;;;;;;7.45;4.00;;;11.20;99.90;;;;;;4912539;29;20044;-83
2023/03/24 02:09:53;;;;;;;9.27;4.65;;;11.20;99.90;;;;;;4910061;29;20459;-83
2023/03/24 02:12:18;;;;;;;6.10;3.60;;;11.30;99.90;;;;;;4894403;29;20044;-83
2023/03/24 02:14:45;;;;;;;9.23;3.35;;;11.30;99.90;;;;;;4896035;29;20111;-83
2023/03/24 02:17:20;;;;;;;7.03;3.70;;;11.30;99.90;;;;;;4913476;29;20028;-82
2023/03/24 02:20:08;;;;;;;5.72;3.40;;;11.30;99.90;;;;;;4906082;29;20106;-82
2023/03/24 02:22:34;;;;;;;8.15;3.85;;;11.30;99.90;;;;;;4899290;29;20054;-83
2023/03/24 02:25:23;;;;;;;10.80;4.45;;;11.30;99.90;;;;;;4910096;29;20044;-82
2023/03/24 02:28:08;;;;;;;6.90;3.75;;;11.30;99.90;;;;;;4909260;29;20044;-82
2023/03/24 02:30:49;;;;;;;7.30;4.28;;;11.70;99.90;;;;;;4901305;29;20059;-82
2023/03/24 02:33:27;;;;;;;9.38;4.07;;;11.30;99.90;;;;;;4906612;29;20060;-83
2023/03/24 02:36:22;;;;;;;6.45;3.70;;;11.30;99.90;;;;;;4912628;29;20055;-83
2023/03/24 02:39:12;;;;;;;11.73;4.57;;;11.30;99.90;;;;;;4894655;29;20066;-83
2023/03/24 02:41:49;;;;;;;10.30;4.47;;;11.30;99.90;;;;;;4889238;29;20043;-83
2023/03/24 02:44:27;;;;;;;8.45;4.18;;;11.30;99.90;;;;;;4890240;29;20163;-83
2023/03/24 02:46:59;;;;;;;7.82;4.30;;;11.30;99.90;;;;;;4892735;29;20055;-83
2023/03/24 02:49:35;;;;;;;8.55;4.35;;;11.30;99.90;;;;;;4895116;29;20071;-83
2023/03/24 02:52:15;;;;;;;7.78;4.55;;;11.40;99.90;;;;;;4892963;29;20520;-83
2023/03/24 02:54:49;;;;;;;9.90;5.07;;;11.30;99.90;;;;;;4892622;29;20407;-83
2023/03/24 02:57:38;;;;;;;8.38;4.78;;;11.30;99.90;;;;;;4892559;29;20044;-84
2023/03/24 03:00:18;;;;;;;10.90;5.03;;;12.10;99.90;;;;;;4886852;29;20115;-84
2023/03/24 03:02:58;;;;;;;8.55;4.57;;;11.40;99.90;;;;;;4911360;29;20040;-84
2023/03/24 03:05:34;;;;;;;7.47;4.30;;;11.70;99.90;;;;;;4909505;29;20043;-84
2023/03/24 03:08:08;;;;;;;9.38;4.88;;;11.40;99.90;;;;;;4890623;29;20526;-84
2023/03/24 03:10:40;;;;;;;7.60;4.53;;;11.40;99.90;;;;;;4894384;29;20047;-84
2023/03/24 03:13:14;;;;;;;7.50;4.97;;;11.40;99.90;;;;;;4908622;29;20634;-84
2023/03/24 03:15:48;;;;;;;8.73;4.73;;;11.40;99.90;;;;;;4908921;29;20051;-84
2023/03/24 03:18:24;;;;;;;;;;;11.40;99.90;;;;;;4910965;29;20432;-84
2023/03/24 03:20:53;;;;;;;6.40;3.95;;;11.40;99.90;;;;;;4907458;29;19954;-84
2023/03/24 03:23:28;;;;;;;11.00;4.22;;;11.40;99.90;;;;;;4893663;29;20047;-85
2023/03/24 03:25:57;;;;;;;;;;;11.40;99.90;;;;;;4894705;29;20043;-85
2023/03/24 03:28:28;;;;;;;8.80;5.28;;;11.40;99.90;;;;;;4895593;29;19966;-85
2023/03/24 03:30:58;;;;;;;9.00;4.30;;;11.50;99.90;;;;;;4890752;29;20050;-85
2023/03/24 03:33:41;;;;;;;8.27;4.68;;;11.50;99.90;;;;;;4894782;29;20052;-85
2023/03/24 03:36:09;;;;;;;8.27;4.28;;;11.50;99.90;;;;;;4897499;29;20070;-85
2023/03/24 03:38:53;;;;;;;8.95;4.20;;;11.40;99.90;;;;;;4893827;29;20047;-85
2023/03/24 03:41:25;;;;;;;8.32;4.25;;;11.50;99.90;;;;;;4907871;29;20043;-85
2023/03/24 03:43:51;;;;;;;8.73;4.20;;;11.50;99.90;;;;;;4891535;29;20044;-85
2023/03/24 03:46:19;;;;;;;7.43;2.30;;;11.50;99.90;;;;;;4893471;29;20122;-86
2023/03/24 03:48:46;;;;;;;5.72;1.90;;;11.40;99.90;;;;;;4906126;29;20063;-85
2023/03/24 03:51:13;;;;;;;5.60;2.40;;;11.30;99.90;;;;;;4912974;29;20047;-86
2023/03/24 03:54:01;;;;;;;6.13;2.78;;;11.20;99.90;;;;;;4906149;29;20052;-85
2023/03/24 03:56:29;;;;;;;6.75;2.70;;;11.20;99.90;;;;;;4910889;29;20510;-85
2023/03/24 03:58:55;;;;;;;6.18;2.92;;;11.20;99.90;;;;;;4892130;29;20052;-86
2023/03/24 04:01:28;;;;;;;7.30;3.10;;;11.10;99.90;;;;;;4894961;29;20391;-85
2023/03/24 04:04:12;;;;;;;6.80;2.80;;;11.10;99.90;;;;;;4909811;29;20055;-85
2023/03/24 04:06:43;;;;;;;8.32;2.60;;;11.10;99.90;;;;;;4888650;29;20080;-85
2023/03/24 04:09:23;;;;;;;7.50;3.33;;;11.10;99.90;;;;;;4889621;29;20439;-85
2023/03/24 04:12:03;;;;;;;6.35;2.38;;;11.10;99.90;;;;;;4894390;29;20120;-85
2023/03/24 04:14:39;;;;;;;5.88;2.78;;;11.10;99.90;;;;;;4894543;29;20052;-85
2023/03/24 04:17:16;;;;;;;9.95;2.28;;;11.00;99.90;;;;;;4908364;29;20522;-85
2023/03/24 04:20:17;;;;;;;6.32;2.30;;;10.90;99.90;;;;;;4890467;29;20143;-85
2023/03/24 04:23:08;;;;;;;8.38;2.75;;;10.90;99.90;;;;;;4891083;29;20505;-85
2023/03/24 04:25:57;;;;;;;7.57;2.03;;;10.90;99.90;;;;;;4894294;29;20443;-85
2023/03/24 04:29:01;;;;;;;7.15;2.78;;;10.90;99.90;;;;;;4907632;29;20051;-85
2023/03/24 04:31:48;;;;;;;9.95;1.73;;;10.90;99.90;;;;;;4844746;29;20448;-85
2023/03/24 04:34:19;;;;;;;5.10;1.33;;;10.80;99.90;;;;;;4832427;29;20533;-86
2023/03/24 04:36:56;;;;;;;6.03;1.80;;;10.80;99.90;;;;;;4841859;29;20057;-85
2023/03/24 04:39:28;;;;;;;6.50;1.83;;;10.80;99.90;;;;;;4851572;29;20041;-85
2023/03/24 04:41:57;;;;;;;10.15;2.28;;;10.70;99.90;;;;;;4849610;29;20116;-85
2023/03/24 04:44:24;;;;;;;5.68;1.50;;;10.70;99.90;;;;;;4849847;29;20053;-85
2023/03/24 04:46:53;;;;;;;7.53;1.58;;;10.70;99.90;;;;;;4836907;29;20042;-85
2023/03/24 04:49:27;;;;;;;10.65;1.77;;;10.60;99.90;;;;;;4851317;29;20049;-85
2023/03/24 04:52:02;;;;;;;7.05;1.88;;;10.60;99.90;;;;;;4847021;29;20184;-85
2023/03/24 04:54:31;;;;;;;7.93;2.15;;;10.60;99.90;;;;;;4835143;29;20054;-85
2023/03/24 04:57:04;;;;;;;7.03;1.70;;;10.50;99.90;;;;;;4835655;29;20120;-85
2023/03/24 04:59:33;;;;;;;7.93;1.60;;;10.60;99.90;;;;;;4835395;29;20433;-85
2023/03/24 05:02:00;;;;;;;8.07;1.83;;;10.50;99.90;;;;;;4834260;29;20064;-85
2023/03/24 05:04:28;;;;;;;6.78;2.08;;;10.60;99.90;;;;;;4835540;29;20382;-84
2023/03/24 05:06:57;;;;;;;7.03;1.73;;;10.50;99.90;;;;;;4835537;29;20148;-85
2023/03/24 05:09:24;;;;;;;9.40;1.77;;;10.50;99.90;;;;;;4880706;29;20057;-84
2023/03/24 05:11:50;;;;;;;6.78;1.70;;;10.40;99.90;;;;;;4892687;29;20068;-85
2023/03/24 05:14:16;;;;;;;10.70;2.15;;;10.40;99.90;;;;;;4893495;29;20051;-85
2023/03/24 05:16:42;;;;;;;11.52;1.80;;;10.40;99.90;;;;;;4862886;29;20051;-85
2023/03/24 05:19:08;;;;;;;7.40;1.50;;;10.40;99.90;;;;;;4875114;29;20045;-85
2023/03/24 05:21:34;;;;;;;10.85;2.00;;;10.40;99.90;;;;;;4895798;29;20063;-85
2023/03/24 05:24:00;;;;;;;7.88;2.08;;;10.30;99.90;;;;;;4893889;29;20037;-85
2023/03/24 05:26:25;;;;;;;8.57;1.98;;;10.30;99.90;;;;;;4892921;29;20041;-85
2023/03/24 05:28:52;;;;;;;10.57;2.45;;;10.30;99.90;;;;;;4893900;29;20040;-85
2023/03/24 05:31:18;;;;;;;8.10;2.58;;;10.30;99.90;;;;;;4893431;29;20127;-85
2023/03/24 05:33:44;;;;;;;8.70;1.85;;;10.20;99.90;;;;;;4891999;29;20064;-85
2023/03/24 05:36:12;;;;;;;14.20;2.53;;;10.30;99.90;;;;;;4895450;29;20041;-85
2023/03/24 05:38:38;;;;;;;11.13;2.33;;;10.30;99.90;;;;;;4876438;29;20104;-85
2023/03/24 05:41:05;;;;;;;12.63;2.50;;;10.20;99.90;;;;;;4892988;29;20048;-85
2023/03/24 05:43:31;;;;;;;9.43;2.55;;;10.20;99.90;;;;;;4876070;29;20048;-85
2023/03/24 05:45:58;;;;;;;11.40;2.42;;;10.20;99.90;;;;;;4878546;29;20092;-85
2023/03/24 05:48:27;;;;;;;8.40;2.15;;;10.20;99.90;;;;;;4892369;29;20056;-85
2023/03/24 05:50:53;;;;;;;12.52;3.35;;;10.20;99.90;;;;;;4909752;29;20051;-85
2023/03/24 05:53:19;;;;;;;12.48;2.97;;;10.20;99.90;;;;;;4912806;29;20040;-85
2023/03/24 05:55:45;;;;;;;8.77;1.98;;;10.20;99.90;;;;;;4913281;29;20409;-85
2023/03/24 05:58:11;;;;;;;10.27;2.25;;;10.20;99.90;;;;;;4905629;29;20044;-85
2023/03/24 06:00:37;;;;;;;8.07;2.13;;;10.20;99.90;;;;;;4918764;29;20119;-86
2023/03/24 06:03:03;;;;;;;9.38;2.10;;;10.20;99.90;;;;;;4915675;29;20035;-85
2023/03/24 06:05:30;;;;;;;10.70;2.70;;;10.20;99.90;;;;;;4914205;29;20090;-85
2023/03/24 06:07:57;;;;;;;11.52;2.17;;;10.10;99.90;;;;;;4918045;29;20040;-85
2023/03/24 06:10:35;;;;;;;10.43;2.03;;;10.10;99.90;;;;;;4916235;29;20052;-85
2023/03/24 06:13:01;;;;;;;14.05;2.75;;;10.10;99.90;;;;;;4893832;29;20044;-85
2023/03/24 06:15:29;;;;;;;9.32;2.15;;;10.10;99.90;;;;;;4915332;29;20036;-86
2023/03/24 06:17:55;;;;;;;12.25;2.97;;;10.10;99.90;;;;;;4913378;29;20082;-85
2023/03/24 06:20:21;;;;;;;10.40;2.40;;;10.10;99.90;;;;;;4894036;29;20067;-84
2023/03/24 06:22:48;;;;;;;12.15;2.50;;;10.20;99.90;;;;;;4912908;29;20088;-84
2023/03/24 06:25:16;;;;;;;11.60;2.20;;;10.10;99.90;;;;;;4898647;29;20033;-84
2023/03/24 06:27:46;;;;;;;10.15;2.00;;;10.10;99.90;;;;;;4895853;29;20479;-85
2023/03/24 06:30:15;;;;;;;10.90;2.00;;;10.10;99.90;;;;;;4881980;29;20048;-84
2023/03/24 06:32:45;;;;;;;13.82;3.03;;;10.10;99.90;;;;;;4898059;29;20127;-85
2023/03/24 06:35:12;;;;;;;11.48;2.95;;;10.10;99.90;;;;;;4899411;29;20451;-85
2023/03/24 06:37:39;;;;;;;16.00;2.72;;;10.10;99.90;;;;;;4895745;29;20599;-85
2023/03/24 06:40:06;;;;;;;14.35;2.65;;;10.10;99.90;;;;;;4908164;29;20064;-87
2023/03/24 06:42:31;;;;;;;10.88;1.92;;;10.10;99.90;;;;;;4895211;29;20073;-86
2023/03/24 06:44:57;;;;;;;9.63;2.17;;;10.70;99.90;;;;;;4896425;29;20072;-86
2023/03/24 06:47:23;;;;;;;9.43;2.03;;;10.20;99.90;;;;;;4895905;29;20040;-85
2023/03/24 06:49:49;;;;;;;11.07;2.08;;;10.20;99.90;;;;;;4911265;29;20052;-86
2023/03/24 06:52:14;;;;;;;7.72;1.95;;;10.20;99.90;;;;;;4895993;29;20058;-86
2023/03/24 06:54:40;;;;;;;11.85;2.58;;;10.20;99.90;;;;;;4896681;29;20047;-85
2023/03/24 06:57:06;;;;;;;14.20;1.92;;;10.20;99.90;;;;;;4896170;29;20071;-85
2023/03/24 06:59:32;;;;;;;12.32;2.20;;;10.20;99.90;;;;;;4918626;29;20040;-85
2023/03/24 07:01:58;;;;;;;10.38;2.47;;;10.20;99.90;;;;;;4915738;29;20450;-85
2023/03/24 07:04:26;;;;;;;11.73;2.42;;;10.20;99.90;;;;;;4910462;29;20032;-87
2023/03/24 07:06:52;;;;;;;9.02;2.10;;;10.20;99.90;;;;;;4912960;29;20051;-86
2023/03/24 07:09:20;;;;;;;16.05;2.42;;;10.30;99.90;;;;;;4907613;29;20040;-85
2023/03/24 07:11:45;;;;;;;13.32;2.35;;;10.30;99.90;;;;;;4908136;29;20047;-84
2023/03/24 07:14:11;;;;;;;11.30;1.45;;;10.30;99.90;;;;;;4893923;29;20442;-85
2023/03/24 07:16:37;;;;;;;11.30;1.73;;;10.40;99.90;;;;;;4893279;29;20044;-85
2023/03/24 07:19:03;;;;;;;13.35;1.85;;;10.30;99.90;;;;;;4896659;29;20443;-84
2023/03/24 07:21:28;;;;;;;13.43;1.80;;;10.20;99.90;;;;;;4914696;29;20047;-87
2023/03/24 07:23:57;;;;;;;13.55;2.20;;;10.30;99.90;;;;;;4911237;29;20127;-87
2023/03/24 07:26:23;;;;;;;14.77;2.22;;;10.30;99.90;;;;;;4893326;29;20459;-86
2023/03/24 07:28:49;;;;;;;14.93;2.72;;;10.40;99.90;;;;;;4895244;29;20075;-87
2023/03/24 07:31:14;;;;;;;17.27;2.88;;;10.30;99.90;;;;;;4910451;29;20036;-85
2023/03/24 07:33:41;;;;;;;10.93;2.10;;;10.40;99.90;;;;;;4909640;29;20047;-84
2023/03/24 07:36:07;;;;;;;12.93;2.60;;;10.40;99.90;;;;;;4909823;29;20176;-84
2023/03/24 07:38:33;;;;;;;15.77;2.35;;;10.50;99.90;;;;;;4876293;29;20131;-84
2023/03/24 07:40:59;;;;;;;11.60;2.55;;;10.40;99.90;;;;;;4878746;29;20036;-86
2023/03/24 07:43:26;;;;;;;11.48;2.42;;;10.40;99.90;;;;;;4910605;29;20039;-84
2023/03/24 07:45:51;;;;;;;18.25;2.83;;;10.50;99.90;;;;;;4909250;29;20032;-83
2023/03/24 07:48:17;;;;;;;15.13;2.63;;;11.10;99.90;;;;;;4909987;29;20048;-83
2023/03/24 07:50:43;;;;;;;16.25;2.42;;;10.50;99.90;;;;;;4912495;29;20075;-84
2023/03/24 07:53:08;;;;;;;9.85;2.30;;;10.50;99.90;;;;;;4910266;29;20048;-85
2023/03/24 07:55:38;;;;;;;13.07;2.47;;;10.60;99.90;;;;;;4890068;29;20032;-84
2023/03/24 07:58:06;;;;;;;18.60;2.88;;;10.60;99.90;;;;;;4909118;29;20047;-84
2023/03/24 08:00:32;;;;;;;15.57;2.78;;;10.60;99.90;;;;;;4903317;29;20041;-84
2023/03/24 08:03:02;;;;;;;9.82;2.38;;;10.60;99.90;;;;;;4914607;29;20110;-84
2023/03/24 08:05:29;;;;;;;11.48;2.40;;;10.60;99.90;;;;;;4878296;29;20115;-84
2023/03/24 08:07:59;;;;;;;15.95;3.08;;;11.00;99.90;;;;;;4910535;29;20052;-84
2023/03/24 08:10:28;;;;;;;11.23;2.35;;;10.60;99.90;;;;;;4909789;29;20123;-84
2023/03/24 08:12:55;;;;;;;15.05;2.15;;;10.70;99.90;;;;;;4911288;29;20096;-84
2023/03/24 08:15:21;;;;;;;12.27;2.47;;;10.60;99.90;;;;;;4899314;29;20095;-84
2023/03/24 08:17:48;;;;;;;14.50;3.00;;;10.70;99.90;;;;;;4893553;29;20028;-84
2023/03/24 08:20:14;;;;;;;19.17;3.03;;;10.70;99.90;;;;;;4893508;29;20032;-86
2023/03/24 08:22:42;;;;;;;16.90;3.20;;;10.70;99.90;;;;;;4909663;29;20047;-86
2023/03/24 08:25:10;;;;;;;14.95;2.85;;;10.70;99.90;;;;;;4894308;29;20590;-86
2023/03/24 08:27:37;;;;;;;15.90;3.20;;;10.70;99.90;;;;;;4894892;29;20052;-86
2023/03/24 08:30:09;;;;;;;16.08;2.53;;;11.10;99.90;;;;;;4912028;29;20040;-86
2023/03/24 08:32:35;;;;;;;20.80;2.78;;;10.60;99.90;;;;;;4893069;29;20362;-86
2023/03/24 08:35:04;;;;;;;18.95;3.10;;;10.70;99.90;;;;;;4909424;29;20467;-86
2023/03/24 08:37:30;;;;;;;15.23;3.55;;;10.60;99.90;;;;;;4909608;29;20122;-86
2023/03/24 08:39:57;;;;;;;14.65;3.05;;;10.60;99.90;;;;;;4912215;29;20735;-86
2023/03/24 08:42:25;;;;;;;17.23;2.85;;;10.90;99.90;;;;;;4908739;29;20040;-86
2023/03/24 08:44:52;;;;;;;19.70;3.55;;;10.50;99.90;;;;;;4898346;29;20073;-86
2023/03/24 08:47:17;;;;;;;19.92;2.75;;;10.60;99.90;;;;;;4912039;29;20127;-85
2023/03/24 08:49:43;;;;;;;18.20;2.90;;;10.60;99.90;;;;;;4899635;29;20077;-86
2023/03/24 08:52:09;;;;;;;18.17;3.13;;;10.60;99.90;;;;;;4898880;29;20293;-85
2023/03/24 08:54:35;;;;;;;18.75;2.55;;;10.60;99.90;;;;;;4913722;29;20044;-86
2023/03/24 08:57:01;;;;;;;18.77;2.80;;;10.60;99.90;;;;;;4916187;29;20268;-88
2023/03/24 08:59:26;;;;;;;18.20;2.92;;;10.60;99.90;;;;;;4911740;29;20424;-89
2023/03/24 09:01:52;;;;;;;22.33;3.08;;;10.70;99.90;;;;;;4897532;29;20111;-86
2023/03/24 09:04:18;;;;;;;15.35;2.90;;;10.70;99.90;;;;;;4881902;29;20040;-86
2023/03/24 09:06:43;;;;;;;16.63;3.10;;;10.80;99.90;;;;;;4913908;29;20138;-87
2023/03/24 09:09:09;;;;;;;12.85;2.40;;;10.80;99.90;;;;;;4909064;29;20048;-86
2023/03/24 09:11:35;;;;;;;15.68;2.42;;;10.90;99.90;;;;;;4914089;29;20038;-86
2023/03/24 09:14:00;;;;;;;16.88;2.75;;;10.90;99.90;;;;;;4912635;29;20115;-86
2023/03/24 09:16:27;;;;;;;14.35;2.60;;;10.90;99.90;;;;;;4896898;29;20044;-85
2023/03/24 09:18:52;;;;;;;14.60;2.30;;;10.80;99.90;;;;;;4914489;29;20054;-86
2023/03/24 09:21:18;;;;;;;16.35;2.58;;;10.90;99.90;;;;;;4911261;29;20041;-85
2023/03/24 09:23:44;;;;;;;18.20;3.15;;;11.00;99.90;;;;;;4911522;29;20071;-83
2023/03/24 09:26:13;;;;;;;14.68;2.65;;;10.80;99.90;;;;;;4894817;29;20087;-86
2023/03/24 09:28:38;;;;;;;23.60;2.92;;;11.10;99.90;;;;;;4910872;29;20401;-86
2023/03/24 09:31:05;;;;;;;20.15;3.22;;;11.20;99.90;;;;;;4880905;29;20059;-88
2023/03/24 09:33:33;;;;;;;11.82;2.47;;;11.40;99.90;;;;;;4904971;29;20072;-87
2023/03/24 09:36:00;;;;;;;11.07;2.35;;;11.60;99.90;;;;;;4898114;29;20047;-86
2023/03/24 09:38:27;;;;;;;11.80;2.20;;;11.80;99.90;;;;;;4881836;29;20040;-85
2023/03/24 09:41:00;;;;;;;14.90;2.28;;;11.90;99.90;;;;;;4915093;29;20072;-88
2023/03/24 09:43:50;;;;;;;16.40;3.05;;;12.00;99.90;;;;;;4899724;29;20047;-83
2023/03/24 09:46:30;;;;;;;17.95;2.83;;;12.10;99.90;;;;;;4897005;29;20051;-83
2023/03/24 09:48:59;;;;;;;15.32;2.53;;;12.10;99.90;;;;;;4897439;29;20103;-84
2023/03/24 09:51:27;;;;;;;20.30;3.05;;;12.30;99.90;;;;;;4912240;29;20139;-84
2023/03/24 09:54:07;;;;;;;16.05;2.83;;;12.30;99.90;;;;;;4880811;29;20432;-84
2023/03/24 09:56:37;;;;;;;15.52;3.03;;;12.50;99.90;;;;;;4906686;29;20076;-84
2023/03/24 09:59:19;;;;;;;15.70;3.13;;;12.60;99.90;;;;;;4913315;29;20052;-84
2023/03/24 10:01:45;;;;;;;14.57;2.63;;;12.60;99.90;;;;;;4895404;29;20044;-84
2023/03/24 10:04:17;;;;;;;11.30;2.63;;;12.50;99.90;;;;;;4896365;29;20119;-84
2023/03/24 10:06:44;;;;;;;14.55;2.67;;;12.40;99.90;;;;;;4897490;29;20044;-84
2023/03/24 10:09:16;;;;;;;19.90;2.97;;;12.20;99.90;;;;;;4912620;29;20111;-84
2023/03/24 10:11:59;;;;;;;15.63;3.03;;;12.00;99.90;;;;;;4896612;29;20127;-84
2023/03/24 10:15:02;;;;;;;16.50;3.17;;;11.80;99.90;;;;;;4894021;29;20048;-84
2023/03/24 10:18:00;;;;;;;13.48;2.50;;;11.70;99.90;;;;;;4908634;29;20080;-83
2023/03/24 10:20:50;;;;;;;13.70;2.97;;;11.60;99.90;;;;;;4911044;29;20036;-82
2023/03/24 10:23:26;;;;;;;19.60;3.17;;;11.60;99.90;;;;;;4894225;29;20040;-82
2023/03/24 10:26:03;;;;;;;20.73;3.40;;;11.70;99.90;;;;;;4896540;29;20052;-82
2023/03/24 10:28:48;;;;;;;11.18;2.42;;;11.70;99.90;;;;;;4908340;29;20051;-82
2023/03/24 10:31:19;;;;;;;21.02;3.40;;;11.80;99.90;;;;;;4902328;29;20772;-81
2023/03/24 10:33:48;;;;;;;12.82;3.00;;;11.90;99.90;;;;;;4914176;29;20040;-82
2023/03/24 10:36:19;;;;;;;12.75;2.85;;;12.10;99.90;;;;;;4913214;29;20941;-81
2023/03/24 10:38:45;;;;;;;15.95;2.63;;;12.20;99.90;;;;;;4891307;29;20052;-82
2023/03/24 10:41:18;;;;;;;16.05;3.45;;;12.20;99.90;;;;;;4892014;29;20478;-82
2023/03/24 10:43:44;;;;;;;15.48;2.80;;;12.20;99.90;;;;;;4907934;29;20485;-82
2023/03/24 10:46:14;;;;;;;17.63;3.58;;;12.20;99.90;;;;;;4912038;29;20032;-82
2023/03/24 10:48:49;;;;;;;14.40;2.50;;;12.30;99.90;;;;;;4893405;29;20059;-82
2023/03/24 10:51:36;;;;;;;;;;;12.50;99.90;;;;;;4911209;29;20056;-82
2023/03/24 10:54:22;;;;;;;17.92;2.30;;;12.70;99.90;;;;;;4892463;29;20003;-83
2023/03/24 10:56:50;;;;;;;14.10;2.20;;;12.80;99.90;;;;;;4905637;29;20036;-83
2023/03/24 10:59:40;;;;;;;14.43;2.70;;;13.00;99.90;;;;;;4906628;29;20047;-83
2023/03/24 11:02:09;;;;;;;18.52;3.38;;;13.20;99.90;;;;;;4892784;29;20067;-83
2023/03/24 11:04:40;;;;;;;11.60;2.58;;;13.40;99.90;;;;;;4910895;29;20044;-83
2023/03/24 11:07:20;;;;;;;14.27;2.80;;;13.50;99.90;;;;;;4889755;29;20106;-83
2023/03/24 11:10:14;;;;;;;18.90;2.75;;;13.50;99.90;;;;;;4898526;29;20126;-84
2023/03/24 11:12:53;;;;;;;15.63;2.85;;;13.50;99.90;;;;;;4884445;29;20044;-84
2023/03/24 11:15:19;;;;;;;11.57;2.20;;;13.50;99.90;;;;;;4910064;29;20078;-85
2023/03/24 11:17:47;;;;;;;13.23;2.88;;;13.60;99.90;;;;;;4880570;29;20080;-83
2023/03/24 11:20:42;;;;;;;19.55;3.50;;;13.70;99.90;;;;;;4911747;29;20058;-84
2023/03/24 11:23:16;;;;;;;12.82;2.47;;;13.60;99.90;;;;;;4891396;29;20130;-84
2023/03/24 11:26:04;;;;;;;14.35;2.85;;;13.60;99.90;;;;;;4892906;29;20048;-83
2023/03/24 11:28:36;;;;;;;12.25;2.00;;;13.60;99.90;;;;;;4845599;29;20414;-84
2023/03/24 11:31:07;;;;;;;11.40;2.63;;;13.50;99.90;;;;;;4911789;29;20050;-84
2023/03/24 11:33:41;;;;;;;10.82;2.50;;;13.40;99.90;;;;;;4888691;29;20103;-84
2023/03/24 11:36:31;;;;;;;15.45;2.47;;;13.40;99.90;;;;;;4910578;29;20036;-84
2023/03/24 11:39:20;;;;;;;11.40;1.95;;;13.50;99.90;;;;;;4888792;29;20048;-83
2023/03/24 11:42:11;;;;;;;11.38;2.17;;;13.60;99.90;;;;;;4896278;29;20058;-83
2023/03/24 11:44:36;;;;;;;11.00;2.05;;;13.80;99.90;;;;;;4902786;29;20205;-83
2023/03/24 11:47:29;;;;;;;16.77;2.50;;;13.80;99.90;;;;;;4905769;29;20475;-83
2023/03/24 11:50:35;;;;;;;11.27;2.15;;;13.90;99.90;;;;;;4912203;29;20059;-83
2023/03/24 11:53:04;;;;;;;10.35;1.80;;;14.10;99.90;;;;;;4909851;29;20491;-84
2023/03/24 11:55:33;;;;;;;16.45;2.72;;;14.20;99.90;;;;;;4890171;29;20122;-84
2023/03/24 11:58:26;;;;;;;12.23;2.53;;;14.40;99.90;;;;;;4891891;29;20398;-84
2023/03/24 12:01:20;;;;;;;14.60;2.40;;;14.40;99.90;;;;;;4910497;29;20099;-84
2023/03/24 12:03:58;;;;;;;12.27;2.05;;;14.30;99.90;;;;;;4906103;29;20060;-84
2023/03/24 12:06:43;;;;;;;12.20;2.10;;;14.20;99.90;;;;;;4894727;29;20131;-84
2023/03/24 12:09:40;;;;;;;13.25;2.53;;;14.10;99.90;;;;;;4878707;29;20044;-84
2023/03/24 12:12:23;;;;;;;14.75;2.08;;;14.10;99.90;;;;;;4908184;29;20066;-84
2023/03/24 12:15:08;;;;;;;14.63;2.50;;;14.10;99.90;;;;;;4905299;29;20447;-84
2023/03/24 12:17:45;;;;;;;12.82;2.92;;;14.20;99.90;;;;;;4910024;29;20235;-84
2023/03/24 12:20:43;;;;;;;12.75;2.53;;;14.10;99.90;;;;;;4909537;29;20079;-83
2023/03/24 12:23:36;;;;;;;12.20;1.92;;;14.10;99.90;;;;;;4888869;29;20059;-85
2023/03/24 12:26:13;;;;;;;12.52;2.72;;;14.30;99.90;;;;;;4897165;29;20110;-82
2023/03/24 12:28:51;;;;;;;11.32;2.03;;;14.50;99.90;;;;;;4898857;29;20094;-82
2023/03/24 12:31:42;;;;;;;12.23;2.45;;;14.50;99.90;;;;;;4913501;29;20479;-81
2023/03/24 12:34:17;;;;;;;12.23;2.35;;;14.40;99.90;;;;;;4913219;29;20561;-82
2023/03/24 12:36:53;;;;;;;;;;;14.50;99.90;;;;;;4899302;29;20051;-83
2023/03/24 12:39:42;;;;;;;9.90;1.77;;;14.60;99.90;;;;;;4915414;29;20334;-82
2023/03/24 12:42:19;;;;;;;12.00;2.25;;;14.50;99.90;;;;;;4912829;29;20044;-83
2023/03/24 12:45:00;;;;;;;13.18;2.35;;;14.60;99.90;;;;;;4914496;29;20044;-82
2023/03/24 12:48:00;;;;;;;13.45;1.90;;;14.50;99.90;;;;;;4911284;29;20036;-82
2023/03/24 12:50:37;;;;;;;13.98;2.13;;;14.60;99.90;;;;;;4909234;29;20047;-82
2023/03/24 12:53:47;;;;;;;12.90;2.10;;;14.40;99.90;;;;;;4913205;29;20083;-82
2023/03/24 12:56:23;;;;;;;8.23;1.60;;;14.40;99.90;;;;;;4899249;29;20406;-82
2023/03/24 12:58:54;;;;;;;7.55;1.92;;;14.30;99.90;;;;;;4913632;29;20079;-82
2023/03/24 13:01:30;;;;;;;8.77;1.60;;;14.20;99.90;;;;;;4881795;29;20064;-82
2023/03/24 13:04:19;;;;;;;10.50;2.00;;;14.20;99.90;;;;;;4894562;29;20040;-82
2023/03/24 13:07:10;;;;;;;12.60;2.10;;;14.30;99.90;;;;;;4902954;29;20055;-82